Fair River, Mississippi
Current Conditions -  °F | °C
As of 8:55 AM on Friday 28 Nov 2014 (Local Time) from K1R7 Reporting Station
Clear Clear  
Wind Chill: 36°   Ceiling: Unl
Heat Index: 41°   Visibility: 10mi
Dew Point: 32°   Wind: 8mph
Humidity: 70%   Direction: 120°ESE
Pressure: 30.45"   Gusts: NA
Location:  31.5898°N, 90.4722°W
Report Text: K1R7 281455Z AUTO 12007KT 10SM CLR 05/00 A3045 RMK AO2
Loading
Personal Weather Stations






























Interactive Weather Map New forecast layout! Learn more

10-Day Weather Forecast

Advertisements
Track Severe Weather on mobile